sensor_id;sensor_type;location;lat;lon;timestamp;temperature;humidity
25450;DHT22;13371;52.080;5.624;2023-03-01T00:02:01;3.00;85.30
25450;DHT22;13371;52.080;5.624;2023-03-01T00:04:27;2.60;86.30
25450;DHT22;13371;52.080;5.624;2023-03-01T00:06:53;2.70;87.50
25450;DHT22;13371;52.080;5.624;2023-03-01T00:09:19;2.90;87.00
25450;DHT22;13371;52.080;5.624;2023-03-01T00:11:44;2.90;86.40
25450;DHT22;13371;52.080;5.624;2023-03-01T00:14:10;2.90;86.30
25450;DHT22;13371;52.080;5.624;2023-03-01T00:16:38;2.80;86.20
25450;DHT22;13371;52.080;5.624;2023-03-01T00:19:05;3.00;86.30
25450;DHT22;13371;52.080;5.624;2023-03-01T00:21:31;3.00;86.10
25450;DHT22;13371;52.080;5.624;2023-03-01T00:23:57;2.90;85.90
25450;DHT22;13371;52.080;5.624;2023-03-01T00:26:24;3.00;86.00
25450;DHT22;13371;52.080;5.624;2023-03-01T00:28:50;3.00;85.80
25450;DHT22;13371;52.080;5.624;2023-03-01T00:31:20;3.10;86.00
25450;DHT22;13371;52.080;5.624;2023-03-01T00:33:46;3.00;85.40
25450;DHT22;13371;52.080;5.624;2023-03-01T00:36:13;2.90;85.70
25450;DHT22;13371;52.080;5.624;2023-03-01T00:38:44;2.90;86.00
25450;DHT22;13371;52.080;5.624;2023-03-01T00:41:12;2.90;86.00
25450;DHT22;13371;52.080;5.624;2023-03-01T00:43:38;2.90;85.70
25450;DHT22;13371;52.080;5.624;2023-03-01T00:46:06;2.80;85.80
25450;DHT22;13371;52.080;5.624;2023-03-01T00:48:33;2.80;85.60
25450;DHT22;13371;52.080;5.624;2023-03-01T00:51:26;2.90;86.60
25450;DHT22;13371;52.080;5.624;2023-03-01T00:53:54;2.80;86.20
25450;DHT22;13371;52.080;5.624;2023-03-01T00:56:20;2.70;86.60
25450;DHT22;13371;52.080;5.624;2023-03-01T00:58:46;2.50;86.80
25450;DHT22;13371;52.080;5.624;2023-03-01T01:01:18;2.50;87.10
25450;DHT22;13371;52.080;5.624;2023-03-01T01:06:20;2.60;86.70
25450;DHT22;13371;52.080;5.624;2023-03-01T01:08:46;2.70;86.80
25450;DHT22;13371;52.080;5.624;2023-03-01T01:11:12;2.40;87.10
25450;DHT22;13371;52.080;5.624;2023-03-01T01:13:39;2.40;87.40
25450;DHT22;13371;52.080;5.624;2023-03-01T01:16:05;2.40;87.40
25450;DHT22;13371;52.080;5.624;2023-03-01T01:18:30;2.10;87.20
25450;DHT22;13371;52.080;5.624;2023-03-01T01:20:56;1.90;88.50
25450;DHT22;13371;52.080;5.624;2023-03-01T01:23:22;2.10;88.60
25450;DHT22;13371;52.080;5.624;2023-03-01T01:25:47;2.30;88.80
25450;DHT22;13371;52.080;5.624;2023-03-01T01:28:13;2.20;87.90
25450;DHT22;13371;52.080;5.624;2023-03-01T01:30:38;2.30;88.10
25450;DHT22;13371;52.080;5.624;2023-03-01T01:33:04;2.10;88.60
25450;DHT22;13371;52.080;5.624;2023-03-01T01:35:29;2.20;88.30
25450;DHT22;13371;52.080;5.624;2023-03-01T01:37:55;2.40;87.80
25450;DHT22;13371;52.080;5.624;2023-03-01T01:40:20;2.30;87.70
25450;DHT22;13371;52.080;5.624;2023-03-01T01:42:46;2.40;87.70
25450;DHT22;13371;52.080;5.624;2023-03-01T01:45:29;2.40;87.80
25450;DHT22;13371;52.080;5.624;2023-03-01T01:47:59;2.40;88.40
25450;DHT22;13371;52.080;5.624;2023-03-01T01:50:26;2.60;87.40
25450;DHT22;13371;52.080;5.624;2023-03-01T01:52:53;2.60;87.50
25450;DHT22;13371;52.080;5.624;2023-03-01T01:55:24;2.30;87.40
25450;DHT22;13371;52.080;5.624;2023-03-01T01:57:56;2.40;87.90
25450;DHT22;13371;52.080;5.624;2023-03-01T02:00:27;2.60;87.70
25450;DHT22;13371;52.080;5.624;2023-03-01T02:03:00;2.40;87.60
25450;DHT22;13371;52.080;5.624;2023-03-01T02:08:27;1.60;91.00
25450;DHT22;13371;52.080;5.624;2023-03-01T02:10:56;1.60;91.10
25450;DHT22;13371;52.080;5.624;2023-03-01T02:13:22;1.60;91.10
25450;DHT22;13371;52.080;5.624;2023-03-01T02:15:48;1.90;91.10
25450;DHT22;13371;52.080;5.624;2023-03-01T02:18:17;2.10;90.70
25450;DHT22;13371;52.080;5.624;2023-03-01T02:21:08;2.30;90.40
25450;DHT22;13371;52.080;5.624;2023-03-01T02:23:36;2.40;90.00
25450;DHT22;13371;52.080;5.624;2023-03-01T02:26:11;2.30;89.60
25450;DHT22;13371;52.080;5.624;2023-03-01T02:28:41;2.40;89.80
25450;DHT22;13371;52.080;5.624;2023-03-01T02:31:09;2.30;89.60
25450;DHT22;13371;52.080;5.624;2023-03-01T02:33:55;2.30;89.20
25450;DHT22;13371;52.080;5.624;2023-03-01T02:36:28;2.40;89.20
25450;DHT22;13371;52.080;5.624;2023-03-01T02:38:57;2.40;89.30
25450;DHT22;13371;52.080;5.624;2023-03-01T02:41:25;2.30;89.30
25450;DHT22;13371;52.080;5.624;2023-03-01T02:43:51;2.30;89.20
25450;DHT22;13371;52.080;5.624;2023-03-01T02:46:23;2.40;89.10
25450;DHT22;13371;52.080;5.624;2023-03-01T02:48:56;2.30;88.60
25450;DHT22;13371;52.080;5.624;2023-03-01T02:54:28;2.10;88.60
25450;DHT22;13371;52.080;5.624;2023-03-01T02:56:54;2.30;88.20
25450;DHT22;13371;52.080;5.624;2023-03-01T02:59:23;2.30;88.50
25450;DHT22;13371;52.080;5.624;2023-03-01T03:01:50;2.10;87.90
25450;DHT22;13371;52.080;5.624;2023-03-01T03:04:17;1.90;89.20
25450;DHT22;13371;52.080;5.624;2023-03-01T03:06:48;2.00;89.50
25450;DHT22;13371;52.080;5.624;2023-03-01T03:09:15;2.00;89.20
25450;DHT22;13371;52.080;5.624;2023-03-01T03:11:41;2.10;89.00
25450;DHT22;13371;52.080;5.624;2023-03-01T03:14:12;2.00;88.50
25450;DHT22;13371;52.080;5.624;2023-03-01T03:16:56;2.00;88.50
25450;DHT22;13371;52.080;5.624;2023-03-01T03:19:21;2.10;88.60
25450;DHT22;13371;52.080;5.624;2023-03-01T03:21:47;2.00;88.50
25450;DHT22;13371;52.080;5.624;2023-03-01T03:24:12;2.00;88.50
25450;DHT22;13371;52.080;5.624;2023-03-01T03:26:38;2.00;88.50
25450;DHT22;13371;52.080;5.624;2023-03-01T03:29:03;1.70;88.60
25450;DHT22;13371;52.080;5.624;2023-03-01T03:31:29;1.80;89.40
25450;DHT22;13371;52.080;5.624;2023-03-01T03:33:55;1.70;89.20
25450;DHT22;13371;52.080;5.624;2023-03-01T03:36:23;1.90;88.80
25450;DHT22;13371;52.080;5.624;2023-03-01T03:38:49;1.80;88.40
25450;DHT22;13371;52.080;5.624;2023-03-01T03:41:15;1.70;89.50
25450;DHT22;13371;52.080;5.624;2023-03-01T03:43:42;1.70;88.70
25450;DHT22;13371;52.080;5.624;2023-03-01T03:46:10;1.60;89.00
25450;DHT22;13371;52.080;5.624;2023-03-01T03:48:39;1.60;89.60
25450;DHT22;13371;52.080;5.624;2023-03-01T03:51:05;1.60;89.80
25450;DHT22;13371;52.080;5.624;2023-03-01T03:53:31;1.70;89.90
25450;DHT22;13371;52.080;5.624;2023-03-01T03:55:57;1.50;89.60
25450;DHT22;13371;52.080;5.624;2023-03-01T03:58:24;1.30;89.70
25450;DHT22;13371;52.080;5.624;2023-03-01T04:00:53;1.30;90.00
25450;DHT22;13371;52.080;5.624;2023-03-01T04:03:19;1.40;90.00
25450;DHT22;13371;52.080;5.624;2023-03-01T04:05:46;1.60;89.60
25450;DHT22;13371;52.080;5.624;2023-03-01T04:08:13;1.50;89.20
25450;DHT22;13371;52.080;5.624;2023-03-01T04:10:39;1.60;89.60
25450;DHT22;13371;52.080;5.624;2023-03-01T04:13:07;1.50;89.50
25450;DHT22;13371;52.080;5.624;2023-03-01T04:15:33;1.50;89.10
25450;DHT22;13371;52.080;5.624;2023-03-01T04:17:59;1.40;89.80
25450;DHT22;13371;52.080;5.624;2023-03-01T04:20:27;1.30;90.10
25450;DHT22;13371;52.080;5.624;2023-03-01T04:25:24;1.20;90.20
25450;DHT22;13371;52.080;5.624;2023-03-01T04:27:49;1.20;90.40
25450;DHT22;13371;52.080;5.624;2023-03-01T04:30:15;1.20;90.30
25450;DHT22;13371;52.080;5.624;2023-03-01T04:32:41;1.20;90.70
25450;DHT22;13371;52.080;5.624;2023-03-01T04:35:07;1.10;90.60
25450;DHT22;13371;52.080;5.624;2023-03-01T04:37:33;1.10;90.80
25450;DHT22;13371;52.080;5.624;2023-03-01T04:40:00;1.10;90.60
25450;DHT22;13371;52.080;5.624;2023-03-01T04:42:25;1.20;90.70
25450;DHT22;13371;52.080;5.624;2023-03-01T04:44:52;1.10;90.70
25450;DHT22;13371;52.080;5.624;2023-03-01T04:47:17;1.00;91.10
25450;DHT22;13371;52.080;5.624;2023-03-01T04:49:43;0.80;90.80
25450;DHT22;13371;52.080;5.624;2023-03-01T04:52:08;0.80;91.10
25450;DHT22;13371;52.080;5.624;2023-03-01T04:54:35;1.00;91.20
25450;DHT22;13371;52.080;5.624;2023-03-01T04:57:02;0.90;90.80
25450;DHT22;13371;52.080;5.624;2023-03-01T04:59:28;1.00;91.10
25450;DHT22;13371;52.080;5.624;2023-03-01T05:01:55;1.00;90.90
25450;DHT22;13371;52.080;5.624;2023-03-01T05:04:25;0.90;91.20
25450;DHT22;13371;52.080;5.624;2023-03-01T05:06:50;1.10;91.20
25450;DHT22;13371;52.080;5.624;2023-03-01T05:09:16;1.10;91.00
25450;DHT22;13371;52.080;5.624;2023-03-01T05:11:42;1.10;90.80
25450;DHT22;13371;52.080;5.624;2023-03-01T05:14:08;1.10;90.80
25450;DHT22;13371;52.080;5.624;2023-03-01T05:16:34;1.10;90.70
25450;DHT22;13371;52.080;5.624;2023-03-01T05:19:02;1.10;90.60
25450;DHT22;13371;52.080;5.624;2023-03-01T05:21:37;1.30;90.60
25450;DHT22;13371;52.080;5.624;2023-03-01T05:24:23;1.30;90.40
25450;DHT22;13371;52.080;5.624;2023-03-01T05:26:48;1.20;90.50
25450;DHT22;13371;52.080;5.624;2023-03-01T05:29:14;1.20;90.40
25450;DHT22;13371;52.080;5.624;2023-03-01T05:31:40;1.00;90.40
25450;DHT22;13371;52.080;5.624;2023-03-01T05:34:05;1.10;90.40
25450;DHT22;13371;52.080;5.624;2023-03-01T05:36:31;1.00;90.40
25450;DHT22;13371;52.080;5.624;2023-03-01T05:38:57;1.00;90.50
25450;DHT22;13371;52.080;5.624;2023-03-01T05:41:22;1.00;90.40
25450;DHT22;13371;52.080;5.624;2023-03-01T05:43:48;1.00;90.30
25450;DHT22;13371;52.080;5.624;2023-03-01T05:46:13;1.00;90.30
25450;DHT22;13371;52.080;5.624;2023-03-01T05:48:40;0.80;90.80
25450;DHT22;13371;52.080;5.624;2023-03-01T05:51:06;0.80;90.90
25450;DHT22;13371;52.080;5.624;2023-03-01T05:53:31;1.00;90.80
25450;DHT22;13371;52.080;5.624;2023-03-01T05:55:57;0.80;90.60
25450;DHT22;13371;52.080;5.624;2023-03-01T05:58:23;0.80;90.80
25450;DHT22;13371;52.080;5.624;2023-03-01T06:00:49;1.00;90.70
25450;DHT22;13371;52.080;5.624;2023-03-01T06:03:16;0.90;90.50
25450;DHT22;13371;52.080;5.624;2023-03-01T06:05:43;1.00;90.50
25450;DHT22;13371;52.080;5.624;2023-03-01T06:08:10;1.10;90.40
25450;DHT22;13371;52.080;5.624;2023-03-01T06:10:36;1.00;90.40
25450;DHT22;13371;52.080;5.624;2023-03-01T06:13:02;0.90;90.60
25450;DHT22;13371;52.080;5.624;2023-03-01T06:15:30;1.00;90.60
25450;DHT22;13371;52.080;5.624;2023-03-01T06:17:56;1.00;90.60
25450;DHT22;13371;52.080;5.624;2023-03-01T06:20:25;1.00;90.40
25450;DHT22;13371;52.080;5.624;2023-03-01T06:22:51;0.90;90.60
25450;DHT22;13371;52.080;5.624;2023-03-01T06:25:20;0.80;90.70
25450;DHT22;13371;52.080;5.624;2023-03-01T06:27:46;0.60;90.70
25450;DHT22;13371;52.080;5.624;2023-03-01T06:30:14;0.60;90.90
25450;DHT22;13371;52.080;5.624;2023-03-01T06:32:40;0.50;91.10
25450;DHT22;13371;52.080;5.624;2023-03-01T06:35:11;0.40;91.50
25450;DHT22;13371;52.080;5.624;2023-03-01T06:37:37;0.60;91.30
25450;DHT22;13371;52.080;5.624;2023-03-01T06:40:04;0.80;90.90
25450;DHT22;13371;52.080;5.624;2023-03-01T06:42:34;1.00;90.90
25450;DHT22;13371;52.080;5.624;2023-03-01T06:45:00;1.00;90.70
25450;DHT22;13371;52.080;5.624;2023-03-01T06:47:25;0.80;90.50
25450;DHT22;13371;52.080;5.624;2023-03-01T06:49:51;0.80;91.00
25450;DHT22;13371;52.080;5.624;2023-03-01T06:52:16;0.80;90.80
25450;DHT22;13371;52.080;5.624;2023-03-01T06:54:42;0.70;90.90
25450;DHT22;13371;52.080;5.624;2023-03-01T06:57:07;0.70;91.00
25450;DHT22;13371;52.080;5.624;2023-03-01T06:59:33;0.90;91.00
25450;DHT22;13371;52.080;5.624;2023-03-01T07:01:58;0.90;90.70
25450;DHT22;13371;52.080;5.624;2023-03-01T07:04:24;0.70;90.90
25450;DHT22;13371;52.080;5.624;2023-03-01T07:06:49;0.70;91.00
25450;DHT22;13371;52.080;5.624;2023-03-01T07:09:21;0.90;91.00
25450;DHT22;13371;52.080;5.624;2023-03-01T07:11:47;0.90;91.10
25450;DHT22;13371;52.080;5.624;2023-03-01T07:14:13;0.90;91.10
25450;DHT22;13371;52.080;5.624;2023-03-01T07:16:39;0.80;91.00
25450;DHT22;13371;52.080;5.624;2023-03-01T07:19:04;0.90;91.20
25450;DHT22;13371;52.080;5.624;2023-03-01T07:21:30;1.00;91.30
25450;DHT22;13371;52.080;5.624;2023-03-01T07:23:56;1.00;91.40
25450;DHT22;13371;52.080;5.624;2023-03-01T07:26:22;1.20;91.60
25450;DHT22;13371;52.080;5.624;2023-03-01T07:28:48;1.10;91.70
25450;DHT22;13371;52.080;5.624;2023-03-01T07:31:14;1.10;91.70
25450;DHT22;13371;52.080;5.624;2023-03-01T07:33:39;1.20;92.10
25450;DHT22;13371;52.080;5.624;2023-03-01T07:36:06;1.10;92.20
25450;DHT22;13371;52.080;5.624;2023-03-01T07:38:32;1.40;92.20
25450;DHT22;13371;52.080;5.624;2023-03-01T07:40:59;1.70;92.50
25450;DHT22;13371;52.080;5.624;2023-03-01T07:43:26;2.10;92.60
25450;DHT22;13371;52.080;5.624;2023-03-01T07:45:51;2.80;93.70
25450;DHT22;13371;52.080;5.624;2023-03-01T07:48:17;3.80;93.20
25450;DHT22;13371;52.080;5.624;2023-03-01T07:50:42;4.90;91.60
25450;DHT22;13371;52.080;5.624;2023-03-01T07:53:09;6.30;86.50
25450;DHT22;13371;52.080;5.624;2023-03-01T07:55:35;7.50;82.60
25450;DHT22;13371;52.080;5.624;2023-03-01T07:58:01;8.90;76.00
25450;DHT22;13371;52.080;5.624;2023-03-01T08:00:26;10.10;73.10
25450;DHT22;13371;52.080;5.624;2023-03-01T08:02:52;11.30;69.70
25450;DHT22;13371;52.080;5.624;2023-03-01T08:05:17;12.40;65.30
25450;DHT22;13371;52.080;5.624;2023-03-01T08:07:43;13.50;63.80
25450;DHT22;13371;52.080;5.624;2023-03-01T08:10:09;14.40;61.50
25450;DHT22;13371;52.080;5.624;2023-03-01T08:12:35;15.60;58.20
25450;DHT22;13371;52.080;5.624;2023-03-01T08:15:00;16.60;54.60
25450;DHT22;13371;52.080;5.624;2023-03-01T08:17:26;17.30;52.00
25450;DHT22;13371;52.080;5.624;2023-03-01T08:19:51;17.80;50.20
25450;DHT22;13371;52.080;5.624;2023-03-01T08:22:17;17.90;50.70
25450;DHT22;13371;52.080;5.624;2023-03-01T08:24:42;18.30;48.90
25450;DHT22;13371;52.080;5.624;2023-03-01T08:27:08;18.60;49.50
25450;DHT22;13371;52.080;5.624;2023-03-01T08:29:34;19.00;50.30
25450;DHT22;13371;52.080;5.624;2023-03-01T08:32:00;19.40;49.80
25450;DHT22;13371;52.080;5.624;2023-03-01T08:34:26;19.60;46.90
25450;DHT22;13371;52.080;5.624;2023-03-01T08:36:52;19.70;47.80
25450;DHT22;13371;52.080;5.624;2023-03-01T08:39:18;19.40;46.80
25450;DHT22;13371;52.080;5.624;2023-03-01T08:41:45;17.90;46.20
25450;DHT22;13371;52.080;5.624;2023-03-01T08:44:12;17.50;48.60
25450;DHT22;13371;52.080;5.624;2023-03-01T08:46:40;17.20;48.40
25450;DHT22;13371;52.080;5.624;2023-03-01T08:49:13;16.70;49.20
25450;DHT22;13371;52.080;5.624;2023-03-01T08:51:40;16.20;49.20
25450;DHT22;13371;52.080;5.624;2023-03-01T08:54:09;15.90;50.30
25450;DHT22;13371;52.080;5.624;2023-03-01T08:56:35;13.40;55.40
25450;DHT22;13371;52.080;5.624;2023-03-01T08:59:01;12.70;54.80
25450;DHT22;13371;52.080;5.624;2023-03-01T09:01:26;11.60;57.40
25450;DHT22;13371;52.080;5.624;2023-03-01T09:03:52;11.20;59.10
25450;DHT22;13371;52.080;5.624;2023-03-01T09:06:18;10.90;60.60
25450;DHT22;13371;52.080;5.624;2023-03-01T09:08:47;10.60;62.10
25450;DHT22;13371;52.080;5.624;2023-03-01T09:11:16;10.20;64.00
25450;DHT22;13371;52.080;5.624;2023-03-01T09:13:43;10.40;64.40
25450;DHT22;13371;52.080;5.624;2023-03-01T09:16:09;9.70;65.30
25450;DHT22;13371;52.080;5.624;2023-03-01T09:18:35;9.30;64.70
25450;DHT22;13371;52.080;5.624;2023-03-01T09:21:07;9.20;64.80
25450;DHT22;13371;52.080;5.624;2023-03-01T09:23:40;9.40;64.50
25450;DHT22;13371;52.080;5.624;2023-03-01T09:26:07;8.20;69.30
25450;DHT22;13371;52.080;5.624;2023-03-01T09:28:35;8.20;67.90
25450;DHT22;13371;52.080;5.624;2023-03-01T09:31:01;7.50;71.30
25450;DHT22;13371;52.080;5.624;2023-03-01T09:33:28;8.10;69.50
25450;DHT22;13371;52.080;5.624;2023-03-01T09:36:05;6.60;73.10
25450;DHT22;13371;52.080;5.624;2023-03-01T09:38:32;6.90;74.20
25450;DHT22;13371;52.080;5.624;2023-03-01T09:40:59;7.50;72.80
25450;DHT22;13371;52.080;5.624;2023-03-01T09:43:40;8.30;70.90
25450;DHT22;13371;52.080;5.624;2023-03-01T09:46:10;8.60;69.60
25450;DHT22;13371;52.080;5.624;2023-03-01T09:48:46;9.30;68.10
25450;DHT22;13371;52.080;5.624;2023-03-01T09:51:22;9.40;66.10
25450;DHT22;13371;52.080;5.624;2023-03-01T09:53:49;9.70;67.40
25450;DHT22;13371;52.080;5.624;2023-03-01T09:56:17;9.90;64.90
25450;DHT22;13371;52.080;5.624;2023-03-01T10:01:29;10.40;61.00
25450;DHT22;13371;52.080;5.624;2023-03-01T10:04:11;9.40;63.10
25450;DHT22;13371;52.080;5.624;2023-03-01T10:06:41;8.70;65.70
25450;DHT22;13371;52.080;5.624;2023-03-01T10:09:16;8.40;66.60
25450;DHT22;13371;52.080;5.624;2023-03-01T10:11:54;8.60;65.40
25450;DHT22;13371;52.080;5.624;2023-03-01T10:19:52;8.90;66.00
25450;DHT22;13371;52.080;5.624;2023-03-01T10:22:24;8.60;64.70
25450;DHT22;13371;52.080;5.624;2023-03-01T10:24:54;8.20;65.80
25450;DHT22;13371;52.080;5.624;2023-03-01T10:27:37;8.10;67.40
25450;DHT22;13371;52.080;5.624;2023-03-01T10:30:19;8.40;66.40
25450;DHT22;13371;52.080;5.624;2023-03-01T10:32:46;8.60;65.30
25450;DHT22;13371;52.080;5.624;2023-03-01T10:35:20;9.20;64.10
25450;DHT22;13371;52.080;5.624;2023-03-01T10:38:09;9.90;62.40
25450;DHT22;13371;52.080;5.624;2023-03-01T10:40:36;8.60;62.60
25450;DHT22;13371;52.080;5.624;2023-03-01T10:43:04;8.50;64.10
25450;DHT22;13371;52.080;5.624;2023-03-01T10:45:33;8.40;63.00
25450;DHT22;13371;52.080;5.624;2023-03-01T10:48:21;8.80;63.60
25450;DHT22;13371;52.080;5.624;2023-03-01T10:56:03;9.60;61.20
25450;DHT22;13371;52.080;5.624;2023-03-01T10:58:30;9.50;61.20
25450;DHT22;13371;52.080;5.624;2023-03-01T11:01:02;9.60;60.30
25450;DHT22;13371;52.080;5.624;2023-03-01T11:03:33;8.80;61.00
25450;DHT22;13371;52.080;5.624;2023-03-01T11:06:20;8.50;62.80
25450;DHT22;13371;52.080;5.624;2023-03-01T11:08:49;8.60;64.00
25450;DHT22;13371;52.080;5.624;2023-03-01T11:11:20;9.00;63.50
25450;DHT22;13371;52.080;5.624;2023-03-01T11:14:07;9.50;61.90
25450;DHT22;13371;52.080;5.624;2023-03-01T11:16:40;9.10;61.00
25450;DHT22;13371;52.080;5.624;2023-03-01T11:21:36;8.90;61.80
25450;DHT22;13371;52.080;5.624;2023-03-01T11:24:05;8.80;63.20
25450;DHT22;13371;52.080;5.624;2023-03-01T11:26:34;9.20;62.00
25450;DHT22;13371;52.080;5.624;2023-03-01T11:29:04;9.20;59.80
25450;DHT22;13371;52.080;5.624;2023-03-01T11:31:32;9.00;59.80
25450;DHT22;13371;52.080;5.624;2023-03-01T11:34:05;8.80;60.30
25450;DHT22;13371;52.080;5.624;2023-03-01T11:36:53;8.60;60.10
25450;DHT22;13371;52.080;5.624;2023-03-01T11:42:13;8.70;60.80
25450;DHT22;13371;52.080;5.624;2023-03-01T11:44:42;8.80;60.90
25450;DHT22;13371;52.080;5.624;2023-03-01T12:01:32;9.40;59.10
25450;DHT22;13371;52.080;5.624;2023-03-01T12:07:00;10.20;58.30
25450;DHT22;13371;52.080;5.624;2023-03-01T12:13:16;10.20;57.10
25450;DHT22;13371;52.080;5.624;2023-03-01T12:21:30;9.00;60.80
25450;DHT22;13371;52.080;5.624;2023-03-01T12:24:42;9.50;59.70
25450;DHT22;13371;52.080;5.624;2023-03-01T12:27:39;9.80;60.30
25450;DHT22;13371;52.080;5.624;2023-03-01T12:32:57;9.80;58.70
25450;DHT22;13371;52.080;5.624;2023-03-01T12:38:24;10.60;57.50
25450;DHT22;13371;52.080;5.624;2023-03-01T12:49:45;9.90;57.40
25450;DHT22;13371;52.080;5.624;2023-03-01T12:55:08;10.00;56.90
25450;DHT22;13371;52.080;5.624;2023-03-01T12:57:52;9.70;58.50
25450;DHT22;13371;52.080;5.624;2023-03-01T13:00:32;9.70;60.30
25450;DHT22;13371;52.080;5.624;2023-03-01T13:06:19;10.10;56.40
25450;DHT22;13371;52.080;5.624;2023-03-01T13:09:09;10.20;55.60
25450;DHT22;13371;52.080;5.624;2023-03-01T13:11:42;9.80;56.90
25450;DHT22;13371;52.080;5.624;2023-03-01T13:16:47;10.10;56.80
25450;DHT22;13371;52.080;5.624;2023-03-01T13:19:22;10.30;57.70
25450;DHT22;13371;52.080;5.624;2023-03-01T13:21:51;10.00;56.50
25450;DHT22;13371;52.080;5.624;2023-03-01T13:24:39;9.90;57.00
25450;DHT22;13371;52.080;5.624;2023-03-01T13:29:44;10.00;57.60
25450;DHT22;13371;52.080;5.624;2023-03-01T13:32:34;9.60;58.30
25450;DHT22;13371;52.080;5.624;2023-03-01T13:37:51;10.30;57.30
25450;DHT22;13371;52.080;5.624;2023-03-01T13:42:50;10.40;56.80
25450;DHT22;13371;52.080;5.624;2023-03-01T13:45:38;10.20;56.00
25450;DHT22;13371;52.080;5.624;2023-03-01T13:48:31;10.00;56.90
25450;DHT22;13371;52.080;5.624;2023-03-01T13:51:08;10.40;56.60
25450;DHT22;13371;52.080;5.624;2023-03-01T13:53:36;9.90;57.40
25450;DHT22;13371;52.080;5.624;2023-03-01T13:56:21;10.40;57.20
25450;DHT22;13371;52.080;5.624;2023-03-01T13:58:51;10.40;56.30
25450;DHT22;13371;52.080;5.624;2023-03-01T14:03:54;9.70;56.60
25450;DHT22;13371;52.080;5.624;2023-03-01T14:06:23;9.60;58.30
25450;DHT22;13371;52.080;5.624;2023-03-01T14:08:52;9.90;58.80
25450;DHT22;13371;52.080;5.624;2023-03-01T14:14:36;10.40;55.70
25450;DHT22;13371;52.080;5.624;2023-03-01T14:19:43;9.90;57.10
25450;DHT22;13371;52.080;5.624;2023-03-01T14:22:28;10.00;58.10
25450;DHT22;13371;52.080;5.624;2023-03-01T14:25:19;10.00;57.00
25450;DHT22;13371;52.080;5.624;2023-03-01T14:28:01;10.20;57.70
25450;DHT22;13371;52.080;5.624;2023-03-01T14:30:30;10.70;57.80
25450;DHT22;13371;52.080;5.624;2023-03-01T14:33:01;10.90;55.30
25450;DHT22;13371;52.080;5.624;2023-03-01T14:35:32;10.40;55.80
25450;DHT22;13371;52.080;5.624;2023-03-01T14:37:59;10.30;56.60
25450;DHT22;13371;52.080;5.624;2023-03-01T14:40:35;10.00;56.30
25450;DHT22;13371;52.080;5.624;2023-03-01T14:43:08;10.10;57.90
25450;DHT22;13371;52.080;5.624;2023-03-01T14:45:35;9.90;57.40
25450;DHT22;13371;52.080;5.624;2023-03-01T14:48:03;9.50;58.30
25450;DHT22;13371;52.080;5.624;2023-03-01T14:50:32;9.70;58.50
25450;DHT22;13371;52.080;5.624;2023-03-01T14:53:01;10.10;58.10
25450;DHT22;13371;52.080;5.624;2023-03-01T14:55:36;10.00;57.70
25450;DHT22;13371;52.080;5.624;2023-03-01T14:58:04;10.20;58.80
25450;DHT22;13371;52.080;5.624;2023-03-01T15:00:32;10.70;57.30
25450;DHT22;13371;52.080;5.624;2023-03-01T15:05:46;10.60;57.10
25450;DHT22;13371;52.080;5.624;2023-03-01T15:08:19;10.50;57.30
25450;DHT22;13371;52.080;5.624;2023-03-01T15:13:34;10.30;56.60
25450;DHT22;13371;52.080;5.624;2023-03-01T15:16:24;10.60;56.70
25450;DHT22;13371;52.080;5.624;2023-03-01T15:18:55;10.80;56.40
25450;DHT22;13371;52.080;5.624;2023-03-01T15:23:57;10.80;55.70
25450;DHT22;13371;52.080;5.624;2023-03-01T15:26:30;10.70;55.80
25450;DHT22;13371;52.080;5.624;2023-03-01T15:28:57;11.00;55.30
25450;DHT22;13371;52.080;5.624;2023-03-01T15:31:36;11.00;55.00
25450;DHT22;13371;52.080;5.624;2023-03-01T15:34:31;10.60;55.40
25450;DHT22;13371;52.080;5.624;2023-03-01T15:36:58;10.60;55.80
25450;DHT22;13371;52.080;5.624;2023-03-01T15:39:41;10.30;56.20
25450;DHT22;13371;52.080;5.624;2023-03-01T15:45:20;10.20;57.40
25450;DHT22;13371;52.080;5.624;2023-03-01T15:48:13;9.80;58.70
25450;DHT22;13371;52.080;5.624;2023-03-01T15:50:41;9.70;59.90
25450;DHT22;13371;52.080;5.624;2023-03-01T15:53:13;9.90;60.70
25450;DHT22;13371;52.080;5.624;2023-03-01T15:55:42;9.70;61.60
25450;DHT22;13371;52.080;5.624;2023-03-01T15:58:22;9.10;63.10
25450;DHT22;13371;52.080;5.624;2023-03-01T16:00:49;9.10;63.90
25450;DHT22;13371;52.080;5.624;2023-03-01T16:03:16;8.70;65.00
25450;DHT22;13371;52.080;5.624;2023-03-01T16:05:53;8.80;65.30
25450;DHT22;13371;52.080;5.624;2023-03-01T16:08:19;9.00;65.00
25450;DHT22;13371;52.080;5.624;2023-03-01T16:10:45;9.10;65.20
25450;DHT22;13371;52.080;5.624;2023-03-01T16:13:14;9.50;64.50
25450;DHT22;13371;52.080;5.624;2023-03-01T16:15:40;9.50;64.30
25450;DHT22;13371;52.080;5.624;2023-03-01T16:18:06;9.10;64.30
25450;DHT22;13371;52.080;5.624;2023-03-01T16:20:33;9.20;64.20
25450;DHT22;13371;52.080;5.624;2023-03-01T16:23:05;9.40;64.40
25450;DHT22;13371;52.080;5.624;2023-03-01T16:25:31;9.30;63.90
25450;DHT22;13371;52.080;5.624;2023-03-01T16:27:57;9.20;64.40
25450;DHT22;13371;52.080;5.624;2023-03-01T16:30:25;9.10;64.40
25450;DHT22;13371;52.080;5.624;2023-03-01T16:32:51;9.40;64.20
25450;DHT22;13371;52.080;5.624;2023-03-01T16:35:18;9.30;64.10
25450;DHT22;13371;52.080;5.624;2023-03-01T16:37:44;9.30;64.00
25450;DHT22;13371;52.080;5.624;2023-03-01T16:40:25;9.30;64.30
25450;DHT22;13371;52.080;5.624;2023-03-01T16:42:52;9.60;64.40
25450;DHT22;13371;52.080;5.624;2023-03-01T16:45:19;9.50;63.90
25450;DHT22;13371;52.080;5.624;2023-03-01T16:47:45;9.20;64.20
25450;DHT22;13371;52.080;5.624;2023-03-01T16:50:11;9.20;64.50
25450;DHT22;13371;52.080;5.624;2023-03-01T16:52:37;9.00;65.40
25450;DHT22;13371;52.080;5.624;2023-03-01T16:55:04;9.20;65.00
25450;DHT22;13371;52.080;5.624;2023-03-01T16:57:30;9.00;65.00
25450;DHT22;13371;52.080;5.624;2023-03-01T16:59:55;9.10;64.90
25450;DHT22;13371;52.080;5.624;2023-03-01T17:02:21;9.10;64.60
25450;DHT22;13371;52.080;5.624;2023-03-01T17:04:54;9.20;64.50
25450;DHT22;13371;52.080;5.624;2023-03-01T17:07:20;9.20;63.90
25450;DHT22;13371;52.080;5.624;2023-03-01T17:09:46;9.40;64.00
25450;DHT22;13371;52.080;5.624;2023-03-01T17:12:12;9.50;63.70
25450;DHT22;13371;52.080;5.624;2023-03-01T17:14:38;9.50;64.00
25450;DHT22;13371;52.080;5.624;2023-03-01T17:17:09;9.20;63.60
25450;DHT22;13371;52.080;5.624;2023-03-01T17:19:35;9.10;64.30
25450;DHT22;13371;52.080;5.624;2023-03-01T17:22:05;9.00;65.00
25450;DHT22;13371;52.080;5.624;2023-03-01T17:24:35;9.20;64.30
25450;DHT22;13371;52.080;5.624;2023-03-01T17:27:01;9.20;64.30
25450;DHT22;13371;52.080;5.624;2023-03-01T17:29:27;9.30;63.80
25450;DHT22;13371;52.080;5.624;2023-03-01T17:31:53;9.20;64.20
25450;DHT22;13371;52.080;5.624;2023-03-01T17:34:21;9.20;64.20
25450;DHT22;13371;52.080;5.624;2023-03-01T17:36:47;8.90;64.60
25450;DHT22;13371;52.080;5.624;2023-03-01T17:39:15;8.90;65.00
25450;DHT22;13371;52.080;5.624;2023-03-01T17:41:41;8.80;65.20
25450;DHT22;13371;52.080;5.624;2023-03-01T17:44:07;8.80;65.40